sensor_id;sensor_type;location;lat;lon;timestamp;temperature;humidity
66190;DHT22;52992;52.084;5.412;2023-05-07T00:01:37;20.30;63.40
66190;DHT22;52992;52.084;5.412;2023-05-07T00:04:04;20.30;63.40
66190;DHT22;52992;52.084;5.412;2023-05-07T00:06:32;20.30;63.40
66190;DHT22;52992;52.084;5.412;2023-05-07T00:08:59;20.30;63.50
66190;DHT22;52992;52.084;5.412;2023-05-07T00:11:28;20.30;63.50
66190;DHT22;52992;52.084;5.412;2023-05-07T00:13:54;20.30;63.50
66190;DHT22;52992;52.084;5.412;2023-05-07T00:16:21;20.30;63.50
66190;DHT22;52992;52.084;5.412;2023-05-07T00:18:48;20.30;63.40
66190;DHT22;52992;52.084;5.412;2023-05-07T00:21:15;20.30;63.40
66190;DHT22;52992;52.084;5.412;2023-05-07T00:23:42;20.30;63.30
66190;DHT22;52992;52.084;5.412;2023-05-07T00:26:09;20.20;63.30
66190;DHT22;52992;52.084;5.412;2023-05-07T00:28:36;20.20;63.30
66190;DHT22;52992;52.084;5.412;2023-05-07T00:31:03;20.20;63.30
66190;DHT22;52992;52.084;5.412;2023-05-07T00:33:31;20.20;63.30
66190;DHT22;52992;52.084;5.412;2023-05-07T00:35:57;20.20;63.20
66190;DHT22;52992;52.084;5.412;2023-05-07T00:38:24;20.20;63.30
66190;DHT22;52992;52.084;5.412;2023-05-07T00:40:51;20.10;63.30
66190;DHT22;52992;52.084;5.412;2023-05-07T00:43:18;20.10;63.30
66190;DHT22;52992;52.084;5.412;2023-05-07T00:45:45;20.10;63.40
66190;DHT22;52992;52.084;5.412;2023-05-07T00:48:12;20.00;63.20
66190;DHT22;52992;52.084;5.412;2023-05-07T00:50:41;20.10;63.30
66190;DHT22;52992;52.084;5.412;2023-05-07T00:53:08;20.10;64.00
66190;DHT22;52992;52.084;5.412;2023-05-07T00:55:36;20.10;63.20
66190;DHT22;52992;52.084;5.412;2023-05-07T00:58:03;20.10;63.30
66190;DHT22;52992;52.084;5.412;2023-05-07T01:00:30;20.10;63.30
66190;DHT22;52992;52.084;5.412;2023-05-07T01:02:57;20.10;63.20
66190;DHT22;52992;52.084;5.412;2023-05-07T01:05:26;20.10;63.20
66190;DHT22;52992;52.084;5.412;2023-05-07T01:07:54;20.10;63.20
66190;DHT22;52992;52.084;5.412;2023-05-07T01:10:22;20.10;63.10
66190;DHT22;52992;52.084;5.412;2023-05-07T01:12:50;20.10;63.10
66190;DHT22;52992;52.084;5.412;2023-05-07T01:15:17;20.10;63.10
66190;DHT22;52992;52.084;5.412;2023-05-07T01:17:45;20.10;63.00
66190;DHT22;52992;52.084;5.412;2023-05-07T01:20:23;20.10;63.00
66190;DHT22;52992;52.084;5.412;2023-05-07T01:22:52;20.10;63.00
66190;DHT22;52992;52.084;5.412;2023-05-07T01:25:19;20.10;62.90
66190;DHT22;52992;52.084;5.412;2023-05-07T01:27:50;20.10;62.80
66190;DHT22;52992;52.084;5.412;2023-05-07T01:30:22;20.10;62.80
66190;DHT22;52992;52.084;5.412;2023-05-07T01:32:58;20.10;62.80
66190;DHT22;52992;52.084;5.412;2023-05-07T01:35:30;20.00;62.60
66190;DHT22;52992;52.084;5.412;2023-05-07T01:37:59;20.00;62.50
66190;DHT22;52992;52.084;5.412;2023-05-07T01:40:27;20.00;62.40
66190;DHT22;52992;52.084;5.412;2023-05-07T01:42:54;20.00;62.40
66190;DHT22;52992;52.084;5.412;2023-05-07T01:45:22;20.00;62.50
66190;DHT22;52992;52.084;5.412;2023-05-07T01:47:49;20.00;62.60
66190;DHT22;52992;52.084;5.412;2023-05-07T01:50:18;19.90;62.60
66190;DHT22;52992;52.084;5.412;2023-05-07T01:52:46;20.00;62.60
66190;DHT22;52992;52.084;5.412;2023-05-07T01:55:13;20.00;62.60
66190;DHT22;52992;52.084;5.412;2023-05-07T01:57:40;20.00;62.70
66190;DHT22;52992;52.084;5.412;2023-05-07T02:00:08;20.00;62.80
66190;DHT22;52992;52.084;5.412;2023-05-07T02:02:42;20.00;62.70
66190;DHT22;52992;52.084;5.412;2023-05-07T02:05:19;20.00;62.80
66190;DHT22;52992;52.084;5.412;2023-05-07T02:07:52;20.00;62.70
66190;DHT22;52992;52.084;5.412;2023-05-07T02:10:19;20.00;62.80
66190;DHT22;52992;52.084;5.412;2023-05-07T02:12:46;20.00;63.00
66190;DHT22;52992;52.084;5.412;2023-05-07T02:15:13;20.00;63.00
66190;DHT22;52992;52.084;5.412;2023-05-07T02:18:08;20.10;63.10
66190;DHT22;52992;52.084;5.412;2023-05-07T02:20:35;20.00;63.10
66190;DHT22;52992;52.084;5.412;2023-05-07T02:23:03;20.10;63.10
66190;DHT22;52992;52.084;5.412;2023-05-07T02:25:29;20.00;63.10
66190;DHT22;52992;52.084;5.412;2023-05-07T02:27:58;20.00;63.20
66190;DHT22;52992;52.084;5.412;2023-05-07T02:30:39;20.00;63.20
66190;DHT22;52992;52.084;5.412;2023-05-07T02:33:07;20.00;63.20
66190;DHT22;52992;52.084;5.412;2023-05-07T02:35:35;20.00;63.20
66190;DHT22;52992;52.084;5.412;2023-05-07T02:38:02;20.00;63.10
66190;DHT22;52992;52.084;5.412;2023-05-07T02:40:31;20.00;63.00
66190;DHT22;52992;52.084;5.412;2023-05-07T02:43:01;20.00;62.90
66190;DHT22;52992;52.084;5.412;2023-05-07T02:45:28;19.90;62.90
66190;DHT22;52992;52.084;5.412;2023-05-07T02:47:55;19.90;63.60
66190;DHT22;52992;52.084;5.412;2023-05-07T02:50:22;19.90;62.80
66190;DHT22;52992;52.084;5.412;2023-05-07T02:52:49;19.90;62.80
66190;DHT22;52992;52.084;5.412;2023-05-07T02:55:16;19.80;62.70
66190;DHT22;52992;52.084;5.412;2023-05-07T02:57:43;19.80;62.60
66190;DHT22;52992;52.084;5.412;2023-05-07T03:00:20;19.80;62.70
66190;DHT22;52992;52.084;5.412;2023-05-07T03:03:01;19.80;62.80
66190;DHT22;52992;52.084;5.412;2023-05-07T03:05:28;19.80;62.70
66190;DHT22;52992;52.084;5.412;2023-05-07T03:07:55;19.80;62.80
66190;DHT22;52992;52.084;5.412;2023-05-07T03:10:22;19.80;62.90
66190;DHT22;52992;52.084;5.412;2023-05-07T03:12:49;19.80;63.00
66190;DHT22;52992;52.084;5.412;2023-05-07T03:15:17;19.80;63.00
66190;DHT22;52992;52.084;5.412;2023-05-07T03:17:44;19.80;63.10
66190;DHT22;52992;52.084;5.412;2023-05-07T03:20:11;19.80;63.20
66190;DHT22;52992;52.084;5.412;2023-05-07T03:22:40;19.80;63.20
66190;DHT22;52992;52.084;5.412;2023-05-07T03:25:07;19.80;63.20
66190;DHT22;52992;52.084;5.412;2023-05-07T03:27:34;19.70;63.10
66190;DHT22;52992;52.084;5.412;2023-05-07T03:30:01;19.70;63.20
66190;DHT22;52992;52.084;5.412;2023-05-07T03:32:28;19.70;63.20
66190;DHT22;52992;52.084;5.412;2023-05-07T03:34:55;19.70;63.20
66190;DHT22;52992;52.084;5.412;2023-05-07T03:37:22;19.60;63.10
66190;DHT22;52992;52.084;5.412;2023-05-07T03:39:49;19.60;63.10
66190;DHT22;52992;52.084;5.412;2023-05-07T03:42:17;19.60;63.10
66190;DHT22;52992;52.084;5.412;2023-05-07T03:44:45;19.60;63.20
66190;DHT22;52992;52.084;5.412;2023-05-07T03:47:12;19.60;63.20
66190;DHT22;52992;52.084;5.412;2023-05-07T03:49:40;19.60;63.30
66190;DHT22;52992;52.084;5.412;2023-05-07T03:52:07;19.50;63.30
66190;DHT22;52992;52.084;5.412;2023-05-07T03:54:34;19.60;63.40
66190;DHT22;52992;52.084;5.412;2023-05-07T03:57:01;19.60;63.50
66190;DHT22;52992;52.084;5.412;2023-05-07T03:59:28;19.50;63.50
66190;DHT22;52992;52.084;5.412;2023-05-07T04:01:56;19.50;63.50
66190;DHT22;52992;52.084;5.412;2023-05-07T04:04:25;19.50;63.60
66190;DHT22;52992;52.084;5.412;2023-05-07T04:06:52;19.50;63.60
66190;DHT22;52992;52.084;5.412;2023-05-07T04:09:20;19.50;64.40
66190;DHT22;52992;52.084;5.412;2023-05-07T04:11:47;19.50;63.60
66190;DHT22;52992;52.084;5.412;2023-05-07T04:14:14;19.50;63.80
66190;DHT22;52992;52.084;5.412;2023-05-07T04:16:41;19.50;63.90
66190;DHT22;52992;52.084;5.412;2023-05-07T04:19:08;19.50;63.90
66190;DHT22;52992;52.084;5.412;2023-05-07T04:21:36;19.50;63.80
66190;DHT22;52992;52.084;5.412;2023-05-07T04:24:04;19.50;63.60
66190;DHT22;52992;52.084;5.412;2023-05-07T04:26:32;19.50;63.60
66190;DHT22;52992;52.084;5.412;2023-05-07T04:28:59;19.50;63.50
66190;DHT22;52992;52.084;5.412;2023-05-07T04:31:31;19.50;63.50
66190;DHT22;52992;52.084;5.412;2023-05-07T04:33:58;19.60;63.50
66190;DHT22;52992;52.084;5.412;2023-05-07T04:36:25;19.60;63.50
66190;DHT22;52992;52.084;5.412;2023-05-07T04:38:59;19.60;63.50
66190;DHT22;52992;52.084;5.412;2023-05-07T04:41:26;19.60;63.60
66190;DHT22;52992;52.084;5.412;2023-05-07T04:43:55;19.60;63.60
66190;DHT22;52992;52.084;5.412;2023-05-07T04:46:23;19.60;63.60
66190;DHT22;52992;52.084;5.412;2023-05-07T04:48:53;19.60;63.60
66190;DHT22;52992;52.084;5.412;2023-05-07T04:51:20;19.70;63.60
66190;DHT22;52992;52.084;5.412;2023-05-07T04:53:48;19.70;63.60
66190;DHT22;52992;52.084;5.412;2023-05-07T04:56:15;19.70;63.60
66190;DHT22;52992;52.084;5.412;2023-05-07T04:58:44;19.70;63.50
66190;DHT22;52992;52.084;5.412;2023-05-07T05:01:11;19.70;63.50
66190;DHT22;52992;52.084;5.412;2023-05-07T05:03:39;19.60;63.40
66190;DHT22;52992;52.084;5.412;2023-05-07T05:06:07;19.60;63.40
66190;DHT22;52992;52.084;5.412;2023-05-07T05:08:34;19.50;63.40
66190;DHT22;52992;52.084;5.412;2023-05-07T05:11:02;19.60;63.40
66190;DHT22;52992;52.084;5.412;2023-05-07T05:13:32;19.60;63.40
66190;DHT22;52992;52.084;5.412;2023-05-07T05:16:01;19.60;63.50
66190;DHT22;52992;52.084;5.412;2023-05-07T05:18:32;19.60;63.50
66190;DHT22;52992;52.084;5.412;2023-05-07T05:20:59;19.70;63.50
66190;DHT22;52992;52.084;5.412;2023-05-07T05:23:27;19.70;63.50
66190;DHT22;52992;52.084;5.412;2023-05-07T05:25:58;19.70;63.50
66190;DHT22;52992;52.084;5.412;2023-05-07T05:28:28;19.70;63.50
66190;DHT22;52992;52.084;5.412;2023-05-07T05:30:55;19.80;63.20
66190;DHT22;52992;52.084;5.412;2023-05-07T05:33:24;19.80;63.20
66190;DHT22;52992;52.084;5.412;2023-05-07T05:35:51;19.80;63.20
66190;DHT22;52992;52.084;5.412;2023-05-07T05:38:18;19.70;63.30
66190;DHT22;52992;52.084;5.412;2023-05-07T05:40:45;19.80;63.40
66190;DHT22;52992;52.084;5.412;2023-05-07T05:43:14;19.80;63.40
66190;DHT22;52992;52.084;5.412;2023-05-07T05:45:40;19.80;63.40
66190;DHT22;52992;52.084;5.412;2023-05-07T05:48:07;19.80;63.40
66190;DHT22;52992;52.084;5.412;2023-05-07T05:50:35;19.80;63.40
66190;DHT22;52992;52.084;5.412;2023-05-07T05:53:04;19.90;63.50
66190;DHT22;52992;52.084;5.412;2023-05-07T05:55:31;19.90;63.50
66190;DHT22;52992;52.084;5.412;2023-05-07T05:58:02;19.90;63.40
66190;DHT22;52992;52.084;5.412;2023-05-07T06:00:33;19.90;63.30
66190;DHT22;52992;52.084;5.412;2023-05-07T06:03:02;20.00;63.30
66190;DHT22;52992;52.084;5.412;2023-05-07T06:05:29;20.00;63.10
66190;DHT22;52992;52.084;5.412;2023-05-07T06:07:57;20.00;63.00
66190;DHT22;52992;52.084;5.412;2023-05-07T06:10:26;19.90;62.90
66190;DHT22;52992;52.084;5.412;2023-05-07T06:12:54;20.00;63.00
66190;DHT22;52992;52.084;5.412;2023-05-07T06:15:21;20.00;62.90
66190;DHT22;52992;52.084;5.412;2023-05-07T06:17:49;19.90;62.90
66190;DHT22;52992;52.084;5.412;2023-05-07T06:20:16;19.90;62.90
66190;DHT22;52992;52.084;5.412;2023-05-07T06:22:43;19.90;62.90
66190;DHT22;52992;52.084;5.412;2023-05-07T06:25:12;19.90;63.10
66190;DHT22;52992;52.084;5.412;2023-05-07T06:27:39;19.90;63.20
66190;DHT22;52992;52.084;5.412;2023-05-07T06:30:08;19.90;63.30
66190;DHT22;52992;52.084;5.412;2023-05-07T06:32:36;19.90;63.60
66190;DHT22;52992;52.084;5.412;2023-05-07T06:35:03;19.90;64.00
66190;DHT22;52992;52.084;5.412;2023-05-07T06:37:31;19.90;64.20
66190;DHT22;52992;52.084;5.412;2023-05-07T06:40:02;19.90;64.80
66190;DHT22;52992;52.084;5.412;2023-05-07T06:42:30;19.90;65.20
66190;DHT22;52992;52.084;5.412;2023-05-07T06:45:12;19.90;65.40
66190;DHT22;52992;52.084;5.412;2023-05-07T06:47:38;20.00;65.50
66190;DHT22;52992;52.084;5.412;2023-05-07T06:50:06;20.00;65.70
66190;DHT22;52992;52.084;5.412;2023-05-07T06:52:34;20.00;65.80
66190;DHT22;52992;52.084;5.412;2023-05-07T06:55:01;20.00;66.20
66190;DHT22;52992;52.084;5.412;2023-05-07T06:57:28;20.00;66.30
66190;DHT22;52992;52.084;5.412;2023-05-07T06:59:55;20.10;66.50
66190;DHT22;52992;52.084;5.412;2023-05-07T07:02:22;20.10;66.50
66190;DHT22;52992;52.084;5.412;2023-05-07T07:04:50;20.10;66.70
66190;DHT22;52992;52.084;5.412;2023-05-07T07:07:17;20.10;66.70
66190;DHT22;52992;52.084;5.412;2023-05-07T07:09:46;20.30;66.70
66190;DHT22;52992;52.084;5.412;2023-05-07T07:12:16;20.30;66.50
66190;DHT22;52992;52.084;5.412;2023-05-07T07:14:43;20.30;66.50
66190;DHT22;52992;52.084;5.412;2023-05-07T07:17:09;20.40;66.80
66190;DHT22;52992;52.084;5.412;2023-05-07T07:19:36;20.50;66.60
66190;DHT22;52992;52.084;5.412;2023-05-07T07:22:04;20.50;66.60
66190;DHT22;52992;52.084;5.412;2023-05-07T07:24:32;20.70;66.60
66190;DHT22;52992;52.084;5.412;2023-05-07T07:27:02;21.00;66.50
66190;DHT22;52992;52.084;5.412;2023-05-07T07:29:32;21.30;66.10
66190;DHT22;52992;52.084;5.412;2023-05-07T07:31:59;21.40;65.80
66190;DHT22;52992;52.084;5.412;2023-05-07T07:34:26;21.50;65.30
66190;DHT22;52992;52.084;5.412;2023-05-07T07:36:53;21.60;65.30
66190;DHT22;52992;52.084;5.412;2023-05-07T07:39:20;21.60;65.10
66190;DHT22;52992;52.084;5.412;2023-05-07T07:41:50;21.60;65.30
66190;DHT22;52992;52.084;5.412;2023-05-07T07:44:18;21.60;65.30
66190;DHT22;52992;52.084;5.412;2023-05-07T07:46:50;21.70;65.30
66190;DHT22;52992;52.084;5.412;2023-05-07T07:49:19;21.70;65.20
66190;DHT22;52992;52.084;5.412;2023-05-07T07:51:47;21.90;64.90
66190;DHT22;52992;52.084;5.412;2023-05-07T07:54:14;22.10;64.30
66190;DHT22;52992;52.084;5.412;2023-05-07T07:56:41;22.20;63.80
66190;DHT22;52992;52.084;5.412;2023-05-07T07:59:09;22.20;63.50
66190;DHT22;52992;52.084;5.412;2023-05-07T08:01:39;22.30;63.00
66190;DHT22;52992;52.084;5.412;2023-05-07T08:04:07;22.30;62.80
66190;DHT22;52992;52.084;5.412;2023-05-07T08:06:37;22.10;62.90
66190;DHT22;52992;52.084;5.412;2023-05-07T08:09:05;22.00;62.70
66190;DHT22;52992;52.084;5.412;2023-05-07T08:11:32;21.90;63.10
66190;DHT22;52992;52.084;5.412;2023-05-07T08:14:00;21.80;63.50
66190;DHT22;52992;52.084;5.412;2023-05-07T08:16:27;21.70;63.70
66190;DHT22;52992;52.084;5.412;2023-05-07T08:18:58;21.60;63.70
66190;DHT22;52992;52.084;5.412;2023-05-07T08:21:25;21.50;64.10
66190;DHT22;52992;52.084;5.412;2023-05-07T08:23:53;21.40;64.60
66190;DHT22;52992;52.084;5.412;2023-05-07T08:26:20;21.40;64.90
66190;DHT22;52992;52.084;5.412;2023-05-07T08:28:47;21.40;65.00
66190;DHT22;52992;52.084;5.412;2023-05-07T08:31:14;21.30;65.30
66190;DHT22;52992;52.084;5.412;2023-05-07T08:33:43;21.20;65.40
66190;DHT22;52992;52.084;5.412;2023-05-07T08:36:10;21.10;66.20
66190;DHT22;52992;52.084;5.412;2023-05-07T08:38:37;21.00;66.60
66190;DHT22;52992;52.084;5.412;2023-05-07T08:41:05;21.10;67.00
66190;DHT22;52992;52.084;5.412;2023-05-07T08:43:36;21.10;67.00
66190;DHT22;52992;52.084;5.412;2023-05-07T08:46:04;21.10;66.90
66190;DHT22;52992;52.084;5.412;2023-05-07T08:48:38;21.00;67.10
66190;DHT22;52992;52.084;5.412;2023-05-07T08:51:16;21.00;67.20
66190;DHT22;52992;52.084;5.412;2023-05-07T08:53:45;21.00;67.30
66190;DHT22;52992;52.084;5.412;2023-05-07T08:56:16;21.10;67.40
66190;DHT22;52992;52.084;5.412;2023-05-07T08:58:47;21.10;67.20
66190;DHT22;52992;52.084;5.412;2023-05-07T09:01:16;21.00;67.20
66190;DHT22;52992;52.084;5.412;2023-05-07T09:03:46;20.90;67.90
66190;DHT22;52992;52.084;5.412;2023-05-07T09:06:15;20.90;68.50
66190;DHT22;52992;52.084;5.412;2023-05-07T09:08:49;20.80;69.70
66190;DHT22;52992;52.084;5.412;2023-05-07T09:11:23;20.80;69.60
66190;DHT22;52992;52.084;5.412;2023-05-07T09:13:55;20.80;69.90
66190;DHT22;52992;52.084;5.412;2023-05-07T09:16:24;20.80;70.30
66190;DHT22;52992;52.084;5.412;2023-05-07T09:18:53;20.80;70.50
66190;DHT22;52992;52.084;5.412;2023-05-07T09:21:21;20.90;70.70
66190;DHT22;52992;52.084;5.412;2023-05-07T09:23:54;21.00;70.40
66190;DHT22;52992;52.084;5.412;2023-05-07T09:26:26;21.00;70.30
66190;DHT22;52992;52.084;5.412;2023-05-07T09:28:55;21.10;69.90
66190;DHT22;52992;52.084;5.412;2023-05-07T09:31:22;21.20;69.70
66190;DHT22;52992;52.084;5.412;2023-05-07T09:33:53;21.30;70.40
66190;DHT22;52992;52.084;5.412;2023-05-07T09:36:20;21.30;69.50
66190;DHT22;52992;52.084;5.412;2023-05-07T09:38:48;21.30;69.40
66190;DHT22;52992;52.084;5.412;2023-05-07T09:41:18;21.40;69.70
66190;DHT22;52992;52.084;5.412;2023-05-07T09:43:56;21.50;69.80
66190;DHT22;52992;52.084;5.412;2023-05-07T09:46:31;21.50;69.80
66190;DHT22;52992;52.084;5.412;2023-05-07T09:49:06;21.60;69.60
66190;DHT22;52992;52.084;5.412;2023-05-07T09:51:41;21.70;69.60
66190;DHT22;52992;52.084;5.412;2023-05-07T09:54:10;21.80;69.40
66190;DHT22;52992;52.084;5.412;2023-05-07T09:56:40;21.90;70.20
66190;DHT22;52992;52.084;5.412;2023-05-07T09:59:13;22.00;69.20
66190;DHT22;52992;52.084;5.412;2023-05-07T10:01:42;22.10;68.70
66190;DHT22;52992;52.084;5.412;2023-05-07T10:04:14;22.10;68.50
66190;DHT22;52992;52.084;5.412;2023-05-07T10:06:43;22.20;68.60
66190;DHT22;52992;52.084;5.412;2023-05-07T10:09:11;22.30;68.50
66190;DHT22;52992;52.084;5.412;2023-05-07T10:11:39;22.40;68.50
66190;DHT22;52992;52.084;5.412;2023-05-07T10:14:07;22.40;68.50
66190;DHT22;52992;52.084;5.412;2023-05-07T10:16:36;22.50;68.80
66190;DHT22;52992;52.084;5.412;2023-05-07T10:19:08;22.50;68.90
66190;DHT22;52992;52.084;5.412;2023-05-07T10:21:54;22.60;68.30
66190;DHT22;52992;52.084;5.412;2023-05-07T10:24:30;22.60;68.70
66190;DHT22;52992;52.084;5.412;2023-05-07T10:27:01;22.80;68.50
66190;DHT22;52992;52.084;5.412;2023-05-07T10:32:45;22.90;67.40
66190;DHT22;52992;52.084;5.412;2023-05-07T10:35:24;23.20;66.30
66190;DHT22;52992;52.084;5.412;2023-05-07T10:37:52;23.40;65.20
66190;DHT22;52992;52.084;5.412;2023-05-07T10:40:21;23.60;64.20
66190;DHT22;52992;52.084;5.412;2023-05-07T10:42:55;23.70;64.10
66190;DHT22;52992;52.084;5.412;2023-05-07T10:45:23;23.90;64.70
66190;DHT22;52992;52.084;5.412;2023-05-07T10:48:15;24.40;64.00
66190;DHT22;52992;52.084;5.412;2023-05-07T10:51:21;25.10;63.30
66190;DHT22;52992;52.084;5.412;2023-05-07T10:56:50;27.20;58.80
66190;DHT22;52992;52.084;5.412;2023-05-07T11:02:05;27.80;54.70
66190;DHT22;52992;52.084;5.412;2023-05-07T11:04:43;27.80;54.70
66190;DHT22;52992;52.084;5.412;2023-05-07T11:07:28;27.60;54.30
66190;DHT22;52992;52.084;5.412;2023-05-07T11:10:06;27.30;54.20
66190;DHT22;52992;52.084;5.412;2023-05-07T11:12:48;26.90;54.80
66190;DHT22;52992;52.084;5.412;2023-05-07T11:15:48;26.60;55.90
66190;DHT22;52992;52.084;5.412;2023-05-07T11:18:49;26.30;57.00
66190;DHT22;52992;52.084;5.412;2023-05-07T11:21:42;26.20;57.40
66190;DHT22;52992;52.084;5.412;2023-05-07T11:24:39;26.10;57.20
66190;DHT22;52992;52.084;5.412;2023-05-07T11:27:06;26.10;55.80
66190;DHT22;52992;52.084;5.412;2023-05-07T11:29:34;26.10;55.50
66190;DHT22;52992;52.084;5.412;2023-05-07T11:32:08;26.20;57.30
66190;DHT22;52992;52.084;5.412;2023-05-07T11:34:44;26.50;55.50
66190;DHT22;52992;52.084;5.412;2023-05-07T11:37:17;26.90;53.80
66190;DHT22;52992;52.084;5.412;2023-05-07T11:40:04;26.90;52.80
66190;DHT22;52992;52.084;5.412;2023-05-07T11:42:35;26.70;53.10
66190;DHT22;52992;52.084;5.412;2023-05-07T11:45:02;26.50;53.50
66190;DHT22;52992;52.084;5.412;2023-05-07T11:47:33;26.30;53.40
66190;DHT22;52992;52.084;5.412;2023-05-07T11:50:06;26.00;53.50
66190;DHT22;52992;52.084;5.412;2023-05-07T11:52:34;25.70;53.60
66190;DHT22;52992;52.084;5.412;2023-05-07T11:55:02;25.50;55.50
66190;DHT22;52992;52.084;5.412;2023-05-07T11:57:33;25.40;57.60
66190;DHT22;52992;52.084;5.412;2023-05-07T12:00:00;25.50;57.20
66190;DHT22;52992;52.084;5.412;2023-05-07T12:02:38;26.00;57.30
66190;DHT22;52992;52.084;5.412;2023-05-07T12:05:05;26.50;54.90
66190;DHT22;52992;52.084;5.412;2023-05-07T12:07:34;26.70;54.30
66190;DHT22;52992;52.084;5.412;2023-05-07T12:10:05;26.80;55.00
66190;DHT22;52992;52.084;5.412;2023-05-07T12:12:40;26.80;51.80
66190;DHT22;52992;52.084;5.412;2023-05-07T12:15:09;26.80;52.40
66190;DHT22;52992;52.084;5.412;2023-05-07T12:17:37;26.80;52.00
66190;DHT22;52992;52.084;5.412;2023-05-07T12:20:05;26.70;52.30
66190;DHT22;52992;52.084;5.412;2023-05-07T12:22:33;27.00;53.20
66190;DHT22;52992;52.084;5.412;2023-05-07T12:24:59;27.40;51.00
66190;DHT22;52992;52.084;5.412;2023-05-07T12:27:26;27.90;49.60
66190;DHT22;52992;52.084;5.412;2023-05-07T12:29:53;28.20;49.60
66190;DHT22;52992;52.084;5.412;2023-05-07T12:32:21;28.40;49.20
66190;DHT22;52992;52.084;5.412;2023-05-07T12:34:51;28.50;49.30
66190;DHT22;52992;52.084;5.412;2023-05-07T12:37:25;28.80;48.80
66190;DHT22;52992;52.084;5.412;2023-05-07T12:40:10;29.10;48.10
66190;DHT22;52992;52.084;5.412;2023-05-07T12:42:39;29.20;47.40
66190;DHT22;52992;52.084;5.412;2023-05-07T12:45:13;29.30;45.70
66190;DHT22;52992;52.084;5.412;2023-05-07T12:47:46;29.10;43.20
66190;DHT22;52992;52.084;5.412;2023-05-07T12:50:16;28.80;45.40
66190;DHT22;52992;52.084;5.412;2023-05-07T12:52:47;28.80;45.30
66190;DHT22;52992;52.084;5.412;2023-05-07T12:55:15;28.80;45.30
66190;DHT22;52992;52.084;5.412;2023-05-07T12:57:45;28.80;44.70
66190;DHT22;52992;52.084;5.412;2023-05-07T13:00:14;28.70;44.80
66190;DHT22;52992;52.084;5.412;2023-05-07T13:02:42;28.40;46.00
66190;DHT22;52992;52.084;5.412;2023-05-07T13:05:11;28.20;46.60
66190;DHT22;52992;52.084;5.412;2023-05-07T13:07:39;27.90;46.70
66190;DHT22;52992;52.084;5.412;2023-05-07T13:10:07;27.60;47.90
66190;DHT22;52992;52.084;5.412;2023-05-07T13:12:34;27.30;48.00
66190;DHT22;52992;52.084;5.412;2023-05-07T13:15:02;27.00;46.90
66190;DHT22;52992;52.084;5.412;2023-05-07T13:17:29;26.70;48.80
66190;DHT22;52992;52.084;5.412;2023-05-07T13:19:58;26.50;50.00
66190;DHT22;52992;52.084;5.412;2023-05-07T13:22:25;26.20;50.90
66190;DHT22;52992;52.084;5.412;2023-05-07T13:24:52;26.10;50.60
66190;DHT22;52992;52.084;5.412;2023-05-07T13:27:19;26.00;51.30
66190;DHT22;52992;52.084;5.412;2023-05-07T13:29:46;25.80;51.50
66190;DHT22;52992;52.084;5.412;2023-05-07T13:32:13;25.60;51.60
66190;DHT22;52992;52.084;5.412;2023-05-07T13:34:40;25.50;52.30
66190;DHT22;52992;52.084;5.412;2023-05-07T13:37:07;25.30;53.00
66190;DHT22;52992;52.084;5.412;2023-05-07T13:39:37;25.30;53.80
66190;DHT22;52992;52.084;5.412;2023-05-07T13:42:04;25.30;54.40
66190;DHT22;52992;52.084;5.412;2023-05-07T13:44:31;25.20;55.00
66190;DHT22;52992;52.084;5.412;2023-05-07T13:46:57;25.10;55.00
66190;DHT22;52992;52.084;5.412;2023-05-07T13:49:24;25.10;55.20
66190;DHT22;52992;52.084;5.412;2023-05-07T13:51:51;25.10;55.00
66190;DHT22;52992;52.084;5.412;2023-05-07T13:54:18;25.10;55.30
66190;DHT22;52992;52.084;5.412;2023-05-07T13:56:45;25.10;55.20
66190;DHT22;52992;52.084;5.412;2023-05-07T13:59:12;25.20;55.60
66190;DHT22;52992;52.084;5.412;2023-05-07T14:01:41;25.20;55.60
66190;DHT22;52992;52.084;5.412;2023-05-07T14:04:07;25.30;55.40
66190;DHT22;52992;52.084;5.412;2023-05-07T14:06:34;25.30;55.20
66190;DHT22;52992;52.084;5.412;2023-05-07T14:09:01;25.30;55.10
66190;DHT22;52992;52.084;5.412;2023-05-07T14:11:28;25.30;55.20
66190;DHT22;52992;52.084;5.412;2023-05-07T14:13:55;25.30;55.80
66190;DHT22;52992;52.084;5.412;2023-05-07T14:16:23;25.30;56.00
66190;DHT22;52992;52.084;5.412;2023-05-07T14:18:50;25.30;55.80
66190;DHT22;52992;52.084;5.412;2023-05-07T14:21:17;25.40;55.10
66190;DHT22;52992;52.084;5.412;2023-05-07T14:23:44;25.40;55.10
66190;DHT22;52992;52.084;5.412;2023-05-07T14:26:11;25.30;55.30
66190;DHT22;52992;52.084;5.412;2023-05-07T14:28:37;25.30;55.10
66190;DHT22;52992;52.084;5.412;2023-05-07T14:31:06;25.30;55.40
66190;DHT22;52992;52.084;5.412;2023-05-07T14:33:33;25.30;55.40
66190;DHT22;52992;52.084;5.412;2023-05-07T14:36:00;25.30;55.30
66190;DHT22;52992;52.084;5.412;2023-05-07T14:38:27;25.30;55.20
66190;DHT22;52992;52.084;5.412;2023-05-07T14:40:54;25.40;55.20
66190;DHT22;52992;52.084;5.412;2023-05-07T14:43:22;25.50;55.10
66190;DHT22;52992;52.084;5.412;2023-05-07T14:45:51;25.50;54.70
66190;DHT22;52992;52.084;5.412;2023-05-07T14:48:18;25.50;54.90
66190;DHT22;52992;52.084;5.412;2023-05-07T14:50:47;25.50;55.00
66190;DHT22;52992;52.084;5.412;2023-05-07T14:53:15;25.40;54.60
66190;DHT22;52992;52.084;5.412;2023-05-07T14:55:42;25.30;55.10
66190;DHT22;52992;52.084;5.412;2023-05-07T14:58:10;25.10;55.40
66190;DHT22;52992;52.084;5.412;2023-05-07T15:00:37;25.00;55.40
66190;DHT22;52992;52.084;5.412;2023-05-07T15:03:09;24.90;56.10
66190;DHT22;52992;52.084;5.412;2023-05-07T15:05:37;24.80;56.40
66190;DHT22;52992;52.084;5.412;2023-05-07T15:08:04;24.60;56.30
66190;DHT22;52992;52.084;5.412;2023-05-07T15:10:34;24.50;56.80
66190;DHT22;52992;52.084;5.412;2023-05-07T15:13:07;24.40;57.30
66190;DHT22;52992;52.084;5.412;2023-05-07T15:15:38;24.40;57.70
66190;DHT22;52992;52.084;5.412;2023-05-07T15:18:05;24.40;58.00
66190;DHT22;52992;52.084;5.412;2023-05-07T15:20:32;24.30;57.90
66190;DHT22;52992;52.084;5.412;2023-05-07T15:22:59;24.20;57.60
66190;DHT22;52992;52.084;5.412;2023-05-07T15:25:26;24.10;58.10
66190;DHT22;52992;52.084;5.412;2023-05-07T15:27:53;24.10;58.30
66190;DHT22;52992;52.084;5.412;2023-05-07T15:30:20;24.10;57.30
66190;DHT22;52992;52.084;5.412;2023-05-07T15:32:48;24.10;57.00
66190;DHT22;52992;52.084;5.412;2023-05-07T15:35:15;24.10;56.90
66190;DHT22;52992;52.084;5.412;2023-05-07T15:37:42;24.10;56.20
66190;DHT22;52992;52.084;5.412;2023-05-07T15:40:09;23.80;55.70
66190;DHT22;52992;52.084;5.412;2023-05-07T15:42:37;23.50;55.40
66190;DHT22;52992;52.084;5.412;2023-05-07T15:45:04;23.30;55.80
66190;DHT22;52992;52.084;5.412;2023-05-07T15:47:33;23.00;56.10
66190;DHT22;52992;52.084;5.412;2023-05-07T15:50:02;22.80;56.10
66190;DHT22;52992;52.084;5.412;2023-05-07T15:52:29;22.60;55.30